Station History

Weather Underground - logo

Station Historical Data
Daily Summary for October 7, 2017 Units:  English    Metric   Both
« Previous Day
Next Day »
Daily Weekly Monthly Yearly Custom
  High: Low: Average:
Temperature: 86.8 °F 48.8 °F 66 °F
Dew Point: 53.6 °F 41.4 °F 47.2 °F
Humidity: 87 % 22 % 57 %
Wind Speed: 3.5 mph 0.0 mph 0.6 mph
Wind Gust: 3.5 mph - -
Wind:- - WSW
Pressure: 29.95 in 29.74 in -
Precipitation: 0.00 in    
Historical Graphs
 
 
Tabular Data for October 7, 2017
Time Temperature Dew Point Pressure Wind Wind Speed Wind Gust Humidity Rainfall Rate (Hourly)
00:02 56.1 °F 48.6 °F 29.95 in Calm     76 % 0.00 in
00:07 55.7 °F 48.6 °F 29.95 in Calm     77 % 0.00 in
00:12 55.4 °F 48.7 °F 29.95 in Calm     78 % 0.00 in
00:17 55.3 °F 48.6 °F 29.95 in Calm     78 % 0.00 in
00:22 55.3 °F 48.6 °F 29.95 in Calm     78 % 0.00 in
00:27 55.1 °F 48.7 °F 29.95 in Calm     79 % 0.00 in
00:37 54.9 °F 48.2 °F 29.95 in Calm     78 % 0.00 in
00:42 54.6 °F 48.6 °F 29.95 in Calm     80 % 0.00 in
00:47 54.4 °F 48.4 °F 29.94 in Calm     80 % 0.00 in
00:52 53.9 °F 48.2 °F 29.94 in Calm     81 % 0.00 in
00:57 53.7 °F 48.0 °F 29.94 in Calm     81 % 0.00 in
01:02 53.7 °F 48.0 °F 29.94 in Calm     81 % 0.00 in
01:07 53.6 °F 47.9 °F 29.94 in Calm     81 % 0.00 in
01:12 53.4 °F 47.7 °F 29.94 in Calm     81 % 0.00 in
01:17 53.2 °F 46.5 °F 29.94 in Calm     78 % 0.00 in
01:22 53.3 °F 44.9 °F 29.94 in Calm     73 % 0.00 in
01:27 54.3 °F 44.3 °F 29.94 in Calm     69 % 0.00 in
01:32 54.6 °F 45.0 °F 29.94 in Calm     70 % 0.00 in
01:37 54.5 °F 46.7 °F 29.94 in Calm     75 % 0.00 in
01:42 54.1 °F 46.7 °F 29.94 in Calm     76 % 0.00 in
01:47 53.6 °F 45.9 °F 29.94 in Calm     75 % 0.00 in
01:57 53.3 °F 45.2 °F 29.94 in Calm     74 % 0.00 in
02:02 53.2 °F 45.8 °F 29.94 in Calm     76 % 0.00 in
02:07 52.6 °F 45.9 °F 29.94 in Calm     78 % 0.00 in
02:12 52.0 °F 45.0 °F 29.94 in Calm     77 % 0.00 in
02:17 51.9 °F 44.9 °F 29.94 in Calm     77 % 0.00 in
02:22 51.5 °F 44.5 °F 29.94 in Calm     77 % 0.00 in
02:32 51.3 °F 44.3 °F 29.94 in Calm     77 % 0.00 in
02:37 51.2 °F 44.6 °F 29.94 in Calm     78 % 0.00 in
02:42 51.0 °F 44.4 °F 29.93 in Calm     78 % 0.00 in
02:47 50.9 °F 44.6 °F 29.93 in Calm     79 % 0.00 in
02:52 50.7 °F 44.4 °F 29.93 in Calm     79 % 0.00 in
03:02 50.5 °F 44.2 °F 29.93 in Calm     79 % 0.00 in
03:07 50.3 °F 44.0 °F 29.93 in Calm     79 % 0.00 in
03:12 50.2 °F 44.6 °F 29.93 in Calm     81 % 0.00 in
03:17 50.3 °F 44.7 °F 29.93 in Calm     81 % 0.00 in
03:22 50.0 °F 44.1 °F 29.93 in Calm     80 % 0.00 in
03:27 49.6 °F 43.7 °F 29.93 in Calm     80 % 0.00 in
03:32 49.6 °F 44.0 °F 29.93 in Calm     81 % 0.00 in
03:37 49.5 °F 44.2 °F 29.92 in Calm     82 % 0.00 in
03:42 49.6 °F 44.3 °F 29.92 in Calm     82 % 0.00 in
03:47 49.9 °F 44.3 °F 29.92 in Calm     81 % 0.00 in
03:48 49.9 °F 44.3 °F 29.92 in Calm     81 % 0.00 in
03:53 50.1 °F 44.2 °F 29.92 in Calm     80 % 0.00 in
03:58 50.4 °F 44.1 °F 29.92 in Calm     79 % 0.00 in
04:03 50.4 °F 43.8 °F 29.92 in Calm     78 % 0.00 in
04:04 50.5 °F 44.2 °F 29.92 in Calm     79 % 0.00 in
04:09 50.4 °F 44.1 °F 29.92 in Calm     79 % 0.00 in
04:14 50.2 °F 43.9 °F 29.92 in Calm     79 % 0.00 in
04:19 50.3 °F 44.4 °F 29.92 in Calm     80 % 0.00 in
04:27 50.6 °F 44.3 °F 29.92 in Calm     79 % 0.00 in
04:32 50.7 °F 44.4 °F 29.92 in Calm     79 % 0.00 in
04:37 50.6 °F 44.0 °F 29.92 in Calm     78 % 0.00 in
04:42 50.8 °F 44.2 °F 29.92 in Calm     78 % 0.00 in
04:48 51.5 °F 44.5 °F 29.92 in Calm     77 % 0.00 in
04:53 51.6 °F 44.3 °F 29.92 in Calm     76 % 0.00 in
04:58 51.7 °F 44.4 °F 29.92 in Calm     76 % 0.00 in
05:03 51.7 °F 44.0 °F 29.92 in Calm     75 % 0.00 in
05:08 51.6 °F 44.3 °F 29.92 in Calm     76 % 0.00 in
05:13 51.5 °F 44.5 °F 29.92 in Calm     77 % 0.00 in
05:23 51.6 °F 44.3 °F 29.92 in Calm     76 % 0.00 in
05:28 51.5 °F 44.5 °F 29.92 in Calm     77 % 0.00 in
05:33 51.5 °F 44.9 °F 29.92 in Calm     78 % 0.00 in
05:38 51.2 °F 45.2 °F 29.92 in Calm     80 % 0.00 in
05:43 50.9 °F 44.9 °F 29.92 in Calm     80 % 0.00 in
05:48 50.2 °F 44.3 °F 29.92 in Calm     80 % 0.00 in
05:53 49.5 °F 43.6 °F 29.92 in Calm     80 % 0.00 in
05:58 49.1 °F 43.5 °F 29.92 in Calm     81 % 0.00 in
06:03 48.9 °F 43.3 °F 29.92 in Calm     81 % 0.00 in
06:08 49.1 °F 43.8 °F 29.92 in Calm     82 % 0.00 in
06:13 49.2 °F 43.9 °F 29.92 in Calm     82 % 0.00 in
06:18 49.5 °F 44.2 °F 29.92 in Calm     82 % 0.00 in
06:23 49.7 °F 44.1 °F 29.92 in Calm     81 % 0.00 in
06:24 49.8 °F 44.2 °F 29.92 in Calm     81 % 0.00 in
06:30 49.9 °F 44.6 °F 29.92 in Calm     82 % 0.00 in
06:40 49.4 °F 45.1 °F 29.92 in Calm     85 % 0.00 in
06:45 49.4 °F 45.1 °F 29.92 in Calm     85 % 0.00 in
06:50 49.5 °F 45.2 °F 29.92 in Calm     85 % 0.00 in
06:55 49.4 °F 44.8 °F 29.92 in Calm     84 % 0.00 in
07:05 48.9 °F 44.6 °F 29.92 in Calm     85 % 0.00 in
07:10 48.8 °F 44.5 °F 29.93 in Calm     85 % 0.00 in
07:15 48.8 °F 44.5 °F 29.92 in Calm     85 % 0.00 in
07:20 49.0 °F 45.3 °F 29.93 in Calm     87 % 0.00 in
07:25 49.4 °F 44.8 °F 29.92 in Calm     84 % 0.00 in
07:30 50.0 °F 44.4 °F 29.92 in Calm     81 % 0.00 in
07:35 50.4 °F 44.5 °F 29.92 in Calm     80 % 0.00 in
07:40 50.5 °F 44.6 °F 29.92 in Calm     80 % 0.00 in
07:45 50.6 °F 44.3 °F 29.92 in Calm     79 % 0.00 in
07:50 50.7 °F 44.1 °F 29.92 in Calm     78 % 0.00 in
07:55 51.2 °F 44.2 °F 29.92 in Calm     77 % 0.00 in
08:00 52.1 °F 44.8 °F 29.92 in Calm     76 % 0.00 in
08:05 53.0 °F 45.6 °F 29.92 in Calm     76 % 0.00 in
08:06 53.2 °F 45.8 °F 29.92 in Calm     76 % 0.00 in
08:11 54.3 °F 46.9 °F 29.92 in Calm     76 % 0.00 in
08:26 57.6 °F 48.3 °F 29.93 in Calm     71 % 0.00 in
08:31 59.8 °F 49.6 °F 29.93 in Calm     69 % 0.00 in
08:36 61.9 °F 49.2 °F 29.93 in Calm     63 % 0.00 in
08:41 63.5 °F 49.8 °F 29.92 in SW 1.2 mph 1.2 mph 61 % 0.00 in
08:46 64.9 °F 49.3 °F 29.93 in SSE 1.2 mph   57 % 0.00 in
08:51 65.2 °F 49.1 °F 29.93 in Calm     56 % 0.00 in
08:56 65.6 °F 48.0 °F 29.93 in Calm     53 % 0.00 in
09:01 65.8 °F 47.7 °F 29.93 in Calm   0.1 mph 52 % 0.00 in
09:06 65.8 °F 48.2 °F 29.93 in SE 1.2 mph   53 % 0.00 in
09:07 65.9 °F 48.8 °F 29.93 in Calm     54 % 0.00 in
09:12 66.7 °F 46.9 °F 29.93 in SE 2.3 mph 2.3 mph 49 % 0.00 in
09:17 67.2 °F 46.8 °F 29.92 in SSE 1.2 mph 1.2 mph 48 % 0.00 in
09:22 67.8 °F 46.3 °F 29.92 in SSE 1.2 mph 1.2 mph 46 % 0.00 in
09:27 68.8 °F 48.3 °F 29.92 in Calm   0.2 mph 48 % 0.00 in
09:32 69.6 °F 47.3 °F 29.92 in SW 1.0 mph 1.0 mph 45 % 0.00 in
09:37 69.8 °F 48.1 °F 29.92 in ENE 1.2 mph   46 % 0.00 in
09:47 70.5 °F 45.7 °F 29.92 in East 2.3 mph 2.3 mph 41 % 0.00 in
09:57 70.8 °F 46.6 °F 29.92 in NW 1.2 mph 1.2 mph 42 % 0.00 in
10:02 71.2 °F 47.6 °F 29.92 in SW 1.0 mph 1.0 mph 43 % 0.00 in
10:07 71.6 °F 45.3 °F 29.93 in NW 1.2 mph 1.2 mph 39 % 0.00 in
10:13 72.0 °F 47.6 °F 29.92 in Calm     42 % 0.00 in
10:18 72.7 °F 46.3 °F 29.92 in Calm     39 % 0.00 in
10:23 73.2 °F 46.8 °F 29.92 in NNE 1.2 mph   39 % 0.00 in
10:28 73.6 °F 47.1 °F 29.92 in ESE 1.0 mph 1.0 mph 39 % 0.00 in
10:33 74.0 °F 47.5 °F 29.92 in NW 1.2 mph   39 % 0.00 in
10:38 74.6 °F 47.3 °F 29.91 in SE 3.5 mph 3.5 mph 38 % 0.00 in
10:43 75.3 °F 47.9 °F 29.92 in NW 2.3 mph 2.3 mph 38 % 0.00 in
10:48 76.0 °F 48.6 °F 29.92 in SSE 2.0 mph 2.0 mph 38 % 0.00 in
10:53 76.5 °F 48.3 °F 29.92 in SE 1.2 mph 1.2 mph 37 % 0.00 in
10:58 77.0 °F 45.7 °F 29.91 in East 1.0 mph 1.0 mph 33 % 0.00 in
11:03 77.2 °F 47.4 °F 29.91 in East 1.2 mph 1.2 mph 35 % 0.00 in
11:08 77.0 °F 47.2 °F 29.91 in East 3.5 mph 3.5 mph 35 % 0.00 in
11:13 77.5 °F 47.7 °F 29.91 in Calm     35 % 0.00 in
11:18 78.2 °F 46.7 °F 29.91 in ESE 2.3 mph 2.3 mph 33 % 0.00 in
11:23 78.4 °F 46.9 °F 29.91 in WSW 1.0 mph 1.0 mph 33 % 0.00 in
11:28 78.0 °F 47.4 °F 29.91 in NNW 1.2 mph 1.2 mph 34 % 0.00 in
11:33 78.1 °F 48.2 °F 29.91 in NW 1.2 mph   35 % 0.00 in
11:38 78.4 °F 47.7 °F 29.90 in NW 1.2 mph 1.2 mph 34 % 0.00 in
11:43 79.0 °F 48.2 °F 29.90 in Calm     34 % 0.00 in
11:48 80.1 °F 47.6 °F 29.90 in Calm     32 % 0.00 in
11:53 80.5 °F 47.1 °F 29.89 in WSW 2.3 mph 2.3 mph 31 % 0.00 in
11:58 80.3 °F 47.7 °F 29.89 in North 2.3 mph 2.3 mph 32 % 0.00 in
12:03 80.1 °F 46.7 °F 29.89 in WNW 1.2 mph 1.2 mph 31 % 0.00 in
12:09 80.2 °F 46.8 °F 29.88 in SW 1.2 mph 1.2 mph 31 % 0.00 in
12:14 80.6 °F 47.2 °F 29.88 in Calm     31 % 0.00 in
12:19 81.0 °F 46.6 °F 29.88 in Calm     30 % 0.00 in
12:24 81.9 °F 50.0 °F 29.87 in Calm     33 % 0.00 in
12:29 82.0 °F 48.4 °F 29.87 in South 2.0 mph 2.0 mph 31 % 0.00 in
12:34 82.4 °F 46.9 °F 29.87 in NW 2.3 mph 2.3 mph 29 % 0.00 in
12:39 82.4 °F 48.7 °F 29.87 in NNW 1.2 mph   31 % 0.00 in
12:44 82.8 °F 46.4 °F 29.86 in NW 2.3 mph 2.3 mph 28 % 0.00 in
12:49 82.5 °F 46.1 °F 29.86 in NW 3.5 mph 3.5 mph 28 % 0.00 in
12:54 82.7 °F 45.3 °F 29.86 in NW 2.3 mph 2.3 mph 27 % 0.00 in
12:59 82.6 °F 46.2 °F 29.86 in NW 1.2 mph 1.2 mph 28 % 0.00 in
13:04 83.2 °F 46.7 °F 29.85 in Calm     28 % 0.00 in
13:09 83.4 °F 46.9 °F 29.85 in NW 1.2 mph 1.2 mph 28 % 0.00 in
13:14 83.2 °F 47.6 °F 29.85 in NW 1.2 mph 1.2 mph 29 % 0.00 in
13:19 83.4 °F 46.9 °F 29.84 in NW 3.5 mph 3.5 mph 28 % 0.00 in
13:24 83.5 °F 48.8 °F 29.84 in NNW 3.5 mph 3.5 mph 30 % 0.00 in
13:29 83.7 °F 47.1 °F 29.84 in NW 1.2 mph 1.2 mph 28 % 0.00 in
13:34 83.9 °F 48.2 °F 29.84 in NW 2.0 mph 2.0 mph 29 % 0.00 in
13:39 84.0 °F 47.4 °F 29.83 in NW 3.5 mph 3.5 mph 28 % 0.00 in
13:44 84.3 °F 45.7 °F 29.83 in NW 1.2 mph 1.2 mph 26 % 0.00 in
13:49 84.4 °F 46.8 °F 29.83 in SSE 1.2 mph 1.2 mph 27 % 0.00 in
13:54 85.1 °F 46.4 °F 29.83 in NW 1.2 mph 1.2 mph 26 % 0.00 in
13:59 85.1 °F 44.2 °F 29.83 in NE 1.2 mph   24 % 0.00 in
14:04 85.0 °F 43.0 °F 29.83 in WNW 2.3 mph 2.3 mph 23 % 0.00 in
14:09 85.3 °F 45.5 °F 29.82 in NNW 3.5 mph 3.5 mph 25 % 0.00 in
14:14 85.5 °F 44.6 °F 29.82 in WNW 3.5 mph 3.5 mph 24 % 0.00 in
14:19 85.4 °F 45.6 °F 29.82 in NW 3.5 mph 3.5 mph 25 % 0.00 in
14:24 85.5 °F 45.7 °F 29.82 in NW 2.3 mph 2.3 mph 25 % 0.00 in
14:29 85.7 °F 45.8 °F 29.81 in WNW 2.3 mph 2.3 mph 25 % 0.00 in
14:34 85.4 °F 43.4 °F 29.81 in WNW 3.5 mph 3.5 mph 23 % 0.00 in
14:44 85.5 °F 43.5 °F 29.81 in WNW 2.3 mph 2.3 mph 23 % 0.00 in
14:49 85.9 °F 44.9 °F 29.81 in NW 2.3 mph 2.3 mph 24 % 0.00 in
14:54 85.7 °F 45.8 °F 29.81 in NW 3.5 mph 3.5 mph 25 % 0.00 in
14:59 86.0 °F 45.0 °F 29.80 in NW 3.5 mph 3.5 mph 24 % 0.00 in
15:04 86.0 °F 45.0 °F 29.80 in NW 2.3 mph 2.3 mph 24 % 0.00 in
15:09 86.0 °F 43.9 °F 29.80 in NW 2.3 mph 2.3 mph 23 % 0.00 in
15:15 85.8 °F 44.8 °F 29.80 in WSW 3.5 mph 3.5 mph 24 % 0.00 in
15:20 86.2 °F 44.0 °F 29.80 in Calm     23 % 0.00 in
15:21 86.3 °F 44.1 °F 29.80 in Calm     23 % 0.00 in
15:26 86.6 °F 44.4 °F 29.79 in NW 2.0 mph 2.0 mph 23 % 0.00 in
15:31 86.7 °F 46.7 °F 29.79 in WSW 1.2 mph 1.2 mph 25 % 0.00 in
15:36 86.8 °F 44.6 °F 29.79 in NW 2.3 mph 2.3 mph 23 % 0.00 in
15:41 86.4 °F 44.2 °F 29.79 in NNW 3.5 mph 3.5 mph 23 % 0.00 in
15:46 86.2 °F 42.9 °F 29.78 in NW 2.3 mph   22 % 0.00 in
15:51 86.3 °F 44.1 °F 29.78 in Calm     23 % 0.00 in
15:56 86.6 °F 44.4 °F 29.78 in ESE 1.2 mph 1.2 mph 23 % 0.00 in
16:01 86.7 °F 44.5 °F 29.78 in SSW 2.3 mph 2.3 mph 23 % 0.00 in
16:06 86.4 °F 45.3 °F 29.78 in WNW 2.3 mph 2.3 mph 24 % 0.00 in
16:11 86.0 °F 43.9 °F 29.78 in NW 1.0 mph 1.0 mph 23 % 0.00 in
16:16 85.8 °F 45.9 °F 29.78 in NW 1.2 mph 1.2 mph 25 % 0.00 in
16:21 85.5 °F 45.7 °F 29.78 in NNE 2.3 mph 2.3 mph 25 % 0.00 in
16:26 85.5 °F 45.7 °F 29.77 in NNW 1.2 mph 1.2 mph 25 % 0.00 in
16:31 85.3 °F 45.5 °F 29.77 in WNW 3.5 mph 3.5 mph 25 % 0.00 in
16:36 85.1 °F 45.3 °F 29.77 in NW 2.3 mph 2.3 mph 25 % 0.00 in
16:46 84.8 °F 45.1 °F 29.77 in NW 3.5 mph 3.5 mph 25 % 0.00 in
16:56 84.5 °F 42.6 °F 29.76 in West 2.3 mph 2.3 mph 23 % 0.00 in
17:01 84.4 °F 41.4 °F 29.76 in NW 2.0 mph 2.0 mph 22 % 0.00 in
17:06 84.3 °F 42.5 °F 29.76 in NW 2.3 mph 2.3 mph 23 % 0.00 in
17:11 84.1 °F 44.5 °F 29.76 in NW 2.0 mph 2.0 mph 25 % 0.00 in
17:21 83.7 °F 42.0 °F 29.76 in WNW 1.2 mph 1.2 mph 23 % 0.00 in
17:26 83.5 °F 45.0 °F 29.76 in NW 1.2 mph 1.2 mph 26 % 0.00 in
17:31 83.2 °F 44.7 °F 29.76 in Calm     26 % 0.00 in
17:36 82.8 °F 45.4 °F 29.76 in Calm     27 % 0.00 in
17:38 82.7 °F 45.3 °F 29.76 in Calm     27 % 0.00 in
17:43 82.4 °F 45.1 °F 29.76 in Calm     27 % 0.00 in
17:48 82.1 °F 45.8 °F 29.76 in Calm     28 % 0.00 in
17:53 81.7 °F 46.3 °F 29.75 in Calm     29 % 0.00 in
17:58 81.2 °F 45.9 °F 29.75 in Calm     29 % 0.00 in
18:03 80.6 °F 46.3 °F 29.75 in Calm     30 % 0.00 in
18:13 79.0 °F 49.8 °F 29.75 in Calm     36 % 0.00 in
18:18 78.0 °F 50.3 °F 29.75 in Calm     38 % 0.00 in
18:23 76.8 °F 50.0 °F 29.74 in Calm     39 % 0.00 in
18:28 75.8 °F 49.8 °F 29.74 in Calm     40 % 0.00 in
18:33 74.8 °F 48.9 °F 29.74 in Calm     40 % 0.00 in
18:43 73.1 °F 51.1 °F 29.74 in Calm     46 % 0.00 in
18:53 71.5 °F 51.9 °F 29.74 in Calm     50 % 0.00 in
18:58 70.6 °F 51.1 °F 29.74 in Calm     50 % 0.00 in
19:03 70.1 °F 51.1 °F 29.74 in Calm     51 % 0.00 in
19:08 69.8 °F 51.4 °F 29.74 in Calm     52 % 0.00 in
19:09 69.8 °F 51.9 °F 29.74 in Calm     53 % 0.00 in
19:14 69.4 °F 51.5 °F 29.74 in Calm     53 % 0.00 in
19:19 68.9 °F 51.1 °F 29.74 in Calm     53 % 0.00 in
19:24 68.4 °F 51.6 °F 29.74 in Calm     55 % 0.00 in
19:29 67.9 °F 52.6 °F 29.74 in Calm     58 % 0.00 in
19:34 67.3 °F 53.4 °F 29.74 in Calm     61 % 0.00 in
19:39 66.8 °F 53.4 °F 29.74 in Calm     62 % 0.00 in
19:44 66.6 °F 53.6 °F 29.74 in Calm     63 % 0.00 in
19:49 66.2 °F 52.8 °F 29.74 in Calm     62 % 0.00 in
19:54 66.1 °F 52.7 °F 29.74 in Calm     62 % 0.00 in
19:59 65.9 °F 52.1 °F 29.75 in Calm     61 % 0.00 in
20:04 66.1 °F 51.8 °F 29.75 in Calm     60 % 0.00 in
20:09 66.1 °F 52.3 °F 29.75 in Calm     61 % 0.00 in
20:14 65.7 °F 52.3 °F 29.75 in Calm     62 % 0.00 in
20:19 65.4 °F 52.5 °F 29.75 in Calm     63 % 0.00 in
20:24 64.9 °F 52.8 °F 29.75 in Calm     65 % 0.00 in
20:25 64.9 °F 52.8 °F 29.75 in Calm     65 % 0.00 in
20:28 64.6 °F 53.0 °F 29.75 in Calm     66 % 0.00 in
20:33 64.2 °F 53.0 °F 29.75 in Calm     67 % 0.00 in
20:38 63.8 °F 53.0 °F 29.75 in Calm     68 % 0.00 in
20:43 63.5 °F 52.7 °F 29.76 in Calm     68 % 0.00 in
20:48 63.2 °F 52.9 °F 29.75 in Calm     69 % 0.00 in
20:53 62.8 °F 52.9 °F 29.75 in Calm     70 % 0.00 in
20:58 62.5 °F 52.2 °F 29.76 in Calm     69 % 0.00 in
21:03 62.2 °F 52.3 °F 29.75 in Calm     70 % 0.00 in
21:08 62.0 °F 51.7 °F 29.75 in Calm     69 % 0.00 in
21:13 62.1 °F 51.8 °F 29.75 in Calm     69 % 0.00 in
21:24 62.4 °F 52.1 °F 29.76 in Calm     69 % 0.00 in
21:29 62.5 °F 51.0 °F 29.76 in Calm     66 % 0.00 in
21:34 62.4 °F 52.1 °F 29.76 in Calm     69 % 0.00 in
21:39 62.3 °F 51.6 °F 29.76 in Calm     68 % 0.00 in
21:41 62.0 °F 51.7 °F 29.76 in Calm     69 % 0.00 in
21:46 61.3 °F 51.8 °F 29.76 in Calm     71 % 0.00 in
21:51 60.8 °F 51.3 °F 29.76 in Calm     71 % 0.00 in
21:56 60.4 °F 51.3 °F 29.76 in Calm     72 % 0.00 in
22:01 60.0 °F 50.9 °F 29.76 in Calm     72 % 0.00 in
22:06 59.9 °F 51.2 °F 29.76 in Calm     73 % 0.00 in
22:11 59.8 °F 51.1 °F 29.76 in Calm     73 % 0.00 in
22:16 59.9 °F 51.6 °F 29.76 in Calm     74 % 0.00 in
22:21 59.8 °F 51.1 °F 29.76 in Calm     73 % 0.00 in
22:26 59.6 °F 50.2 °F 29.76 in Calm     71 % 0.00 in
22:31 59.5 °F 48.9 °F 29.76 in Calm     68 % 0.00 in
22:36 59.7 °F 49.9 °F 29.76 in Calm     70 % 0.00 in
22:41 59.4 °F 50.0 °F 29.76 in Calm     71 % 0.00 in
22:46 58.8 °F 50.2 °F 29.76 in Calm     73 % 0.00 in
22:51 58.4 °F 49.8 °F 29.76 in Calm     73 % 0.00 in
22:56 58.2 °F 50.0 °F 29.76 in Calm     74 % 0.00 in
23:01 58.1 °F 50.2 °F 29.76 in Calm     75 % 0.00 in
23:06 57.9 °F 50.0 °F 29.76 in Calm     75 % 0.00 in
23:11 57.5 °F 50.0 °F 29.77 in Calm     76 % 0.00 in
23:16 57.3 °F 50.1 °F 29.77 in Calm     77 % 0.00 in
23:21 57.1 °F 50.0 °F 29.77 in Calm     77 % 0.00 in
23:26 57.0 °F 49.9 °F 29.77 in Calm     77 % 0.00 in
23:31 57.0 °F 49.9 °F 29.76 in Calm     77 % 0.00 in
23:36 57.0 °F 50.2 °F 29.76 in Calm     78 % 0.00 in
23:37 57.1 °F 50.3 °F 29.76 in Calm     78 % 0.00 in
23:42 57.4 °F 49.9 °F 29.76 in Calm     76 % 0.00 in
23:47 57.7 °F 49.8 °F 29.76 in Calm     75 % 0.00 in
23:52 57.7 °F 49.8 °F 29.76 in Calm     75 % 0.00 in
23:57 57.5 °F 49.6 °F 29.76 in Calm     75 % 0.00 in
Park Place, Exeter, Tulare County, California, USA
Compliments of Weather Underground - 2.75 mb